Time,TemperatureF,DewpointF,PressureIn,WindDirection,WindDirectionDegrees,WindSpeedMPH,WindSpeedGustMPH,Humidity,HourlyPrecipIn,Conditions,Clouds,dailyrainin,SoftwareType,DateUTC
2013-01-28 00:11:00,15.9,9.0,30.55,SE,124,0.0,2.0,75,0.00,,,0.00,weatherlink.com 1.10,2013-01-28 05:11:00,
2013-01-28 00:26:00,16.3,9.0,30.54,SE,124,1.0,2.0,74,0.00,,,0.00,weatherlink.com 1.10,2013-01-28 05:26:00,
2013-01-28 00:41:00,16.6,9.0,30.54,SE,124,0.0,2.0,72,0.00,,,0.00,weatherlink.com 1.10,2013-01-28 05:41:00,
2013-01-28 00:56:00,16.9,8.0,30.53,SE,124,1.0,2.0,68,0.00,,,0.00,weatherlink.com 1.10,2013-01-28 05:56:00,
2013-01-28 01:11:00,17.2,9.0,30.52,SE,124,0.0,1.0,69,0.00,,,0.00,weatherlink.com 1.10,2013-01-28 06:11:00,
2013-01-28 01:26:00,17.3,9.0,30.51,SE,124,0.0,2.0,69,0.00,,,0.00,weatherlink.com 1.10,2013-01-28 06:26:00,
2013-01-28 01:41:00,17.4,9.0,30.51,SE,124,0.0,1.0,70,0.00,,,0.00,weatherlink.com 1.10,2013-01-28 06:41:00,
2013-01-28 01:56:00,17.4,10.0,30.50,SE,124,0.0,1.0,71,0.00,,,0.00,weatherlink.com 1.10,2013-01-28 06:56:00,
2013-01-28 02:11:00,17.3,9.0,30.51,SE,124,0.0,1.0,69,0.00,,,0.00,weatherlink.com 1.10,2013-01-28 07:11:00,
2013-01-28 02:26:00,17.2,9.0,30.50,SE,124,1.0,2.0,69,0.00,,,0.00,weatherlink.com 1.10,2013-01-28 07:26:00,
2013-01-28 02:41:00,17.4,9.0,30.48,SE,124,0.0,2.0,69,0.00,,,0.00,weatherlink.com 1.10,2013-01-28 07:41:00,
2013-01-28 02:56:00,17.5,9.0,30.48,SE,132,1.0,2.0,68,0.00,,,0.00,weatherlink.com 1.10,2013-01-28 07:56:00,
2013-01-28 03:11:00,17.5,9.0,30.47,SE,134,0.0,2.0,69,0.00,,,0.00,weatherlink.com 1.10,2013-01-28 08:11:00,
2013-01-28 03:26:00,17.6,10.0,30.47,SE,134,1.0,2.0,71,0.00,,,0.00,weatherlink.com 1.10,2013-01-28 08:26:00,
2013-01-28 03:41:00,17.7,10.0,30.47,SE,134,0.0,1.0,72,0.00,,,0.00,weatherlink.com 1.10,2013-01-28 08:41:00,
2013-01-28 03:56:00,17.9,10.0,30.46,SE,134,0.0,2.0,71,0.00,,,0.00,weatherlink.com 1.10,2013-01-28 08:56:00,
2013-01-28 04:11:00,18.1,11.0,30.46,SE,134,0.0,1.0,72,0.00,,,0.00,weatherlink.com 1.10,2013-01-28 09:11:00,
2013-01-28 04:27:00,18.2,10.0,30.45,SSE,152,0.0,3.0,71,0.00,,,0.00,weatherlink.com 1.10,2013-01-28 09:27:00,
2013-01-28 04:42:00,18.3,10.0,30.44,SSE,152,2.0,3.0,69,0.00,,,0.00,weatherlink.com 1.10,2013-01-28 09:42:00,
2013-01-28 04:56:00,18.4,10.0,30.43,SSE,148,0.0,3.0,70,0.00,,,0.00,weatherlink.com 1.10,2013-01-28 09:56:00,
2013-01-28 05:12:00,18.5,11.0,30.43,SSE,148,0.0,1.0,71,0.00,,,0.00,weatherlink.com 1.10,2013-01-28 10:12:00,
2013-01-28 05:26:00,18.7,11.0,30.43,SSE,148,1.0,2.0,71,0.00,,,0.00,weatherlink.com 1.10,2013-01-28 10:26:00,
2013-01-28 05:42:00,18.9,11.0,30.42,SSE,148,1.0,2.0,70,0.00,,,0.00,weatherlink.com 1.10,2013-01-28 10:42:00,
2013-01-28 05:57:00,19.0,11.0,30.43,SSE,151,2.0,2.0,70,0.00,,,0.00,weatherlink.com 1.10,2013-01-28 10:57:00,
2013-01-28 06:11:00,18.9,11.0,30.42,SSE,153,0.0,2.0,70,0.00,,,0.00,weatherlink.com 1.10,2013-01-28 11:11:00,
2013-01-28 06:26:00,18.8,11.0,30.42,SSE,153,0.0,2.0,71,0.00,,,0.00,weatherlink.com 1.10,2013-01-28 11:26:00,
2013-01-28 06:41:00,18.9,11.0,30.42,SSE,155,0.0,2.0,70,0.00,,,0.00,weatherlink.com 1.10,2013-01-28 11:41:00,
2013-01-28 06:56:00,19.4,11.0,30.41,SSE,156,2.0,3.0,70,0.00,,,0.00,weatherlink.com 1.10,2013-01-28 11:56:00,
2013-01-28 07:11:00,19.7,11.0,30.40,SE,145,2.0,6.0,68,0.00,,,0.00,weatherlink.com 1.10,2013-01-28 12:11:00,
2013-01-28 07:27:00,19.8,11.0,30.40,SSE,148,0.0,1.0,69,0.00,,,0.00,weatherlink.com 1.10,2013-01-28 12:27:00,
2013-01-28 07:42:00,19.8,11.0,30.39,SE,140,0.0,3.0,69,0.00,,,0.00,weatherlink.com 1.10,2013-01-28 12:42:00,
2013-01-28 07:57:00,20.7,11.0,30.37,SE,132,0.0,4.0,67,0.00,,,0.00,weatherlink.com 1.10,2013-01-28 12:57:00,
2013-01-28 08:12:00,20.9,11.0,30.36,SE,142,4.0,4.0,65,0.00,,,0.00,weatherlink.com 1.10,2013-01-28 13:12:00,
2013-01-28 08:27:00,21.2,11.0,30.36,SSE,147,0.0,4.0,64,0.00,,,0.00,weatherlink.com 1.10,2013-01-28 13:27:00,
2013-01-28 08:42:00,21.5,11.0,30.34,South,171,1.0,5.0,64,0.00,,,0.00,weatherlink.com 1.10,2013-01-28 13:42:00,
2013-01-28 08:57:00,21.6,11.0,30.33,South,190,2.0,2.0,64,0.00,,,0.00,weatherlink.com 1.10,2013-01-28 13:57:00,
2013-01-28 09:12:00,21.9,11.0,30.32,SSE,152,0.0,2.0,63,0.00,,,0.00,weatherlink.com 1.10,2013-01-28 14:12:00,
2013-01-28 09:27:00,22.4,11.0,30.32,South,182,2.0,7.0,61,0.00,,,0.00,weatherlink.com 1.10,2013-01-28 14:27:00,
2013-01-28 09:42:00,22.5,10.0,30.31,SSE,167,0.0,5.0,60,0.00,,,0.00,weatherlink.com 1.10,2013-01-28 14:42:00,
2013-01-28 09:57:00,22.0,13.0,30.30,SE,126,12.0,13.0,67,0.00,,,0.00,weatherlink.com 1.10,2013-01-28 14:57:00,
2013-01-28 10:12:00,20.5,15.0,30.30,ESE,117,4.0,13.0,79,0.00,,,0.00,weatherlink.com 1.10,2013-01-28 15:12:00,
2013-01-28 10:27:00,20.3,16.0,30.29,SSE,158,1.0,6.0,84,0.00,,,0.00,weatherlink.com 1.10,2013-01-28 15:27:00,
2013-01-28 10:42:00,20.2,17.0,30.27,SE,143,1.0,6.0,87,0.00,,,0.00,weatherlink.com 1.10,2013-01-28 15:42:00,
2013-01-28 10:57:00,20.3,17.0,30.27,SSW,200,1.0,5.0,88,0.00,,,0.00,weatherlink.com 1.10,2013-01-28 15:57:00,
2013-01-28 11:13:00,20.3,18.0,30.26,SSE,158,0.0,3.0,89,0.00,,,0.00,weatherlink.com 1.10,2013-01-28 16:13:00,
2013-01-28 11:28:00,20.6,18.0,30.23,SSE,149,6.0,7.0,89,0.00,,,0.00,weatherlink.com 1.10,2013-01-28 16:28:00,
2013-01-28 11:58:00,21.1,18.0,30.20,South,179,1.0,8.0,89,0.00,,,0.00,weatherlink.com 1.10,2013-01-28 16:58:00,
2013-01-28 12:13:00,21.3,19.0,30.17,SE,145,0.0,7.0,89,0.00,,,0.00,weatherlink.com 1.10,2013-01-28 17:13:00,
2013-01-28 12:28:00,21.2,18.0,30.17,SSE,166,3.0,11.0,87,0.00,,,0.00,weatherlink.com 1.10,2013-01-28 17:28:00,
2013-01-28 12:43:00,21.2,18.0,30.16,SSW,198,2.0,6.0,87,0.00,,,0.00,weatherlink.com 1.10,2013-01-28 17:43:00,
2013-01-28 12:58:00,21.2,18.0,30.15,SW,215,1.0,10.0,88,0.00,,,0.00,weatherlink.com 1.10,2013-01-28 17:58:00,
2013-01-28 13:13:00,21.1,18.0,30.14,South,188,2.0,4.0,89,0.00,,,0.00,weatherlink.com 1.10,2013-01-28 18:13:00,
2013-01-28 13:28:00,21.0,18.0,30.14,South,183,0.0,3.0,89,0.00,,,0.00,weatherlink.com 1.10,2013-01-28 18:28:00,
2013-01-28 13:43:00,21.3,19.0,30.13,South,170,1.0,3.0,91,0.00,,,0.00,weatherlink.com 1.10,2013-01-28 18:43:00,
2013-01-28 13:58:00,21.3,19.0,30.12,SSE,161,1.0,3.0,91,0.00,,,0.00,weatherlink.com 1.10,2013-01-28 18:58:00,
2013-01-28 14:13:00,21.2,19.0,30.11,SSE,162,0.0,3.0,92,0.00,,,0.00,weatherlink.com 1.10,2013-01-28 19:13:00,
2013-01-28 14:28:00,21.4,20.0,30.10,South,170,1.0,2.0,92,0.00,,,0.00,weatherlink.com 1.10,2013-01-28 19:28:00,
2013-01-28 14:43:00,21.4,20.0,30.10,South,169,1.0,3.0,92,0.00,,,0.00,weatherlink.com 1.10,2013-01-28 19:43:00,
2013-01-28 14:58:00,21.3,19.0,30.09,SSE,153,0.0,4.0,92,0.00,,,0.00,weatherlink.com 1.10,2013-01-28 19:58:00,
2013-01-28 15:13:00,21.2,19.0,30.10,South,175,0.0,2.0,92,0.00,,,0.00,weatherlink.com 1.10,2013-01-28 20:13:00,
2013-01-28 15:28:00,21.1,19.0,30.08,SSE,157,0.0,2.0,92,0.00,,,0.00,weatherlink.com 1.10,2013-01-28 20:28:00,
2013-01-28 15:43:00,21.3,20.0,30.08,SSW,196,0.0,2.0,93,0.00,,,0.00,weatherlink.com 1.10,2013-01-28 20:43:00,
2013-01-28 15:58:00,21.9,20.0,30.05,SSE,157,2.0,7.0,93,0.00,,,0.00,weatherlink.com 1.10,2013-01-28 20:58:00,
2013-01-28 16:13:00,22.1,20.0,30.07,SW,229,0.0,3.0,93,0.00,,,0.00,weatherlink.com 1.10,2013-01-28 21:13:00,
2013-01-28 16:28:00,21.8,20.0,30.06,South,173,2.0,5.0,93,0.00,,,0.00,weatherlink.com 1.10,2013-01-28 21:28:00,
2013-01-28 16:43:00,22.2,21.0,30.06,South,180,0.0,3.0,94,0.00,,,0.00,weatherlink.com 1.10,2013-01-28 21:43:00,
2013-01-28 16:58:00,22.1,21.0,30.05,South,174,1.0,4.0,94,0.00,,,0.00,weatherlink.com 1.10,2013-01-28 21:58:00,
2013-01-28 17:13:00,22.1,21.0,30.04,SSE,156,0.0,4.0,94,0.00,,,0.00,weatherlink.com 1.10,2013-01-28 22:13:00,
2013-01-28 17:28:00,22.6,21.0,30.05,South,181,0.0,4.0,94,0.00,,,0.00,weatherlink.com 1.10,2013-01-28 22:28:00,
2013-01-28 17:43:00,23.1,22.0,30.04,SSE,150,3.0,5.0,95,0.00,,,0.00,weatherlink.com 1.10,2013-01-28 22:43:00,
2013-01-28 17:58:00,23.7,23.0,30.04,SSE,161,1.0,2.0,95,0.00,,,0.00,weatherlink.com 1.10,2013-01-28 22:58:00,
2013-01-28 18:13:00,23.8,23.0,30.04,SE,144,0.0,3.0,95,0.00,,,0.00,weatherlink.com 1.10,2013-01-28 23:13:00,
2013-01-28 18:28:00,23.8,23.0,30.04,SE,146,0.0,2.0,95,0.00,,,0.00,weatherlink.com 1.10,2013-01-28 23:28:00,
2013-01-28 18:43:00,24.2,23.0,30.04,SSE,151,0.0,3.0,95,0.00,,,0.00,weatherlink.com 1.10,2013-01-28 23:43:00,
2013-01-28 18:58:00,24.3,23.0,30.03,SSE,149,0.0,3.0,95,0.00,,,0.00,weatherlink.com 1.10,2013-01-28 23:58:00,
2013-01-28 19:13:00,24.5,23.0,30.03,SSE,164,2.0,3.0,95,0.00,,,0.00,weatherlink.com 1.10,2013-01-29 00:13:00,
2013-01-28 19:28:00,24.6,23.0,30.03,SE,146,0.0,4.0,95,0.00,,,0.00,weatherlink.com 1.10,2013-01-29 00:28:00,
2013-01-28 19:44:00,24.9,24.0,30.02,SE,140,0.0,5.0,96,0.00,,,0.00,weatherlink.com 1.10,2013-01-29 00:44:00,
2013-01-28 19:58:00,25.2,24.0,30.01,SSE,159,1.0,4.0,96,0.00,,,0.00,weatherlink.com 1.10,2013-01-29 00:58:00,
2013-01-28 20:13:00,25.2,24.0,30.01,SSE,152,0.0,2.0,96,0.00,,,0.00,weatherlink.com 1.10,2013-01-29 01:13:00,
2013-01-28 20:28:00,25.2,24.0,30.01,ESE,119,3.0,3.0,96,0.00,,,0.00,weatherlink.com 1.10,2013-01-29 01:28:00,
2013-01-28 20:43:00,25.3,24.0,30.01,SSE,157,0.0,4.0,96,0.00,,,0.00,weatherlink.com 1.10,2013-01-29 01:43:00,
2013-01-28 20:58:00,25.3,24.0,30.01,ESE,109,2.0,5.0,96,0.00,,,0.00,weatherlink.com 1.10,2013-01-29 01:58:00,
2013-01-28 21:13:00,25.4,25.0,30.01,SE,146,1.0,5.0,96,0.00,,,0.00,weatherlink.com 1.10,2013-01-29 02:13:00,
2013-01-28 21:29:00,25.5,25.0,30.00,SSE,158,1.0,4.0,96,0.00,,,0.00,weatherlink.com 1.10,2013-01-29 02:29:00,
2013-01-28 21:43:00,25.7,25.0,30.00,SSE,165,0.0,3.0,96,0.00,,,0.00,weatherlink.com 1.10,2013-01-29 02:43:00,
2013-01-28 21:58:00,25.8,25.0,30.00,SE,134,1.0,3.0,96,0.00,,,0.00,weatherlink.com 1.10,2013-01-29 02:58:00,
2013-01-28 22:13:00,25.8,25.0,30.00,SE,144,3.0,3.0,96,0.00,,,0.00,weatherlink.com 1.10,2013-01-29 03:13:00,
2013-01-28 22:28:00,26.0,25.0,30.00,SE,138,1.0,5.0,96,0.00,,,0.00,weatherlink.com 1.10,2013-01-29 03:28:00,
2013-01-28 22:44:00,26.1,25.0,30.01,SSE,150,3.0,5.0,96,0.00,,,0.00,weatherlink.com 1.10,2013-01-29 03:44:00,
2013-01-28 22:59:00,26.1,25.0,30.02,SE,133,1.0,3.0,96,0.00,,,0.00,weatherlink.com 1.10,2013-01-29 03:59:00,
2013-01-28 23:14:00,26.3,25.0,30.02,SE,133,0.0,2.0,96,0.00,,,0.00,weatherlink.com 1.10,2013-01-29 04:14:00,
2013-01-28 23:29:00,26.6,26.0,30.03,SE,133,0.0,1.0,97,0.00,,,0.00,weatherlink.com 1.10,2013-01-29 04:29:00,
2013-01-28 23:43:00,26.9,26.0,30.03,SE,133,0.0,0.0,97,0.00,,,0.00,weatherlink.com 1.10,2013-01-29 04:43:00,
2013-01-28 23:59:00,27.1,26.0,30.03,SE,133,0.0,1.0,97,0.00,,,0.00,weatherlink.com 1.10,2013-01-29 04:59:00,